Time;durP1;ratioP1;P1;durP2;ratioP2;P2;SDS_P1;SDS_P2;PMS_P1;PMS_P2;Temp;Humidity;BMP_temperature;BMP_pressure;BME280_temperature;BME280_humidity;BME280_pressure;Samples;Min_cycle;Max_cycle;Signal;HPM_P1;HPM_P2
2022/02/23 00:01:00;;;;;;;3.47;1.30;;;8.90;99.90;;;;;;4990496;28;20027;-46
2022/02/23 00:03:25;;;;;;;3.45;1.52;;;9.00;99.90;;;;;;4989768;28;20082;-44
2022/02/23 00:05:51;;;;;;;8.07;1.45;;;8.80;99.90;;;;;;4989842;28;20077;-46
2022/02/23 00:08:16;;;;;;;8.38;2.20;;;8.80;99.90;;;;;;4991026;28;20109;-48
2022/02/23 00:10:42;;;;;;;7.38;1.80;;;8.70;99.90;;;;;;4992997;28;20062;-49
2022/02/23 00:13:07;;;;;;;4.00;1.38;;;8.70;99.90;;;;;;4992688;28;20033;-48
2022/02/23 00:15:33;;;;;;;7.22;1.85;;;8.70;99.90;;;;;;4992977;28;20101;-45
2022/02/23 00:17:58;;;;;;;10.00;2.38;;;8.70;99.90;;;;;;4991687;28;20038;-46
2022/02/23 00:20:24;;;;;;;6.13;1.50;;;8.70;99.90;;;;;;4992913;28;20018;-48
2022/02/23 00:22:49;;;;;;;7.25;2.08;;;8.70;99.90;;;;;;4992576;28;20026;-42
2022/02/23 00:25:16;;;;;;;10.50;1.95;;;8.70;99.90;;;;;;4992934;28;20050;-48
2022/02/23 00:27:42;;;;;;;12.10;2.92;;;8.80;99.90;;;;;;4992712;28;20573;-46
2022/02/23 00:30:08;;;;;;;16.88;2.67;;;8.80;99.90;;;;;;4992595;28;20117;-45
2022/02/23 00:32:33;;;;;;;5.35;1.60;;;8.80;99.90;;;;;;4992782;28;20026;-47
2022/02/23 00:34:59;;;;;;;10.98;1.95;;;8.70;99.90;;;;;;4992482;28;20081;-49
2022/02/23 00:37:24;;;;;;;8.45;2.15;;;8.60;99.90;;;;;;4992426;28;20093;-48
2022/02/23 00:39:50;;;;;;;7.38;1.98;;;8.60;99.90;;;;;;4992537;28;20061;-46
2022/02/23 00:42:16;;;;;;;8.55;1.98;;;8.60;99.90;;;;;;4992291;28;20383;-46
2022/02/23 00:44:42;;;;;;;8.23;2.75;;;8.50;99.90;;;;;;4990868;28;20504;-46
2022/02/23 00:47:10;;;;;;;9.52;1.77;;;8.40;99.90;;;;;;4991076;28;20190;-45
2022/02/23 00:49:35;;;;;;;14.85;2.03;;;8.40;99.90;;;;;;4992530;28;20026;-46
2022/02/23 00:52:03;;;;;;;12.05;2.15;;;8.30;99.90;;;;;;4992128;28;20034;-46
2022/02/23 00:54:29;;;;;;;10.43;2.38;;;8.20;99.90;;;;;;4992109;28;20080;-45
2022/02/23 00:56:55;;;;;;;13.35;1.90;;;8.20;99.90;;;;;;4992108;28;20034;-46
2022/02/23 00:59:20;;;;;;;14.23;2.20;;;8.10;99.90;;;;;;4992315;28;20565;-48
2022/02/23 01:01:46;;;;;;;9.75;1.90;;;8.20;99.90;;;;;;4992043;28;20041;-47
2022/02/23 01:04:12;;;;;;;8.93;1.75;;;8.10;99.90;;;;;;4991862;28;20037;-45
2022/02/23 01:06:37;;;;;;;10.57;2.47;;;8.10;99.90;;;;;;4992007;28;20026;-46
2022/02/23 01:09:04;;;;;;;13.13;3.53;;;8.00;99.90;;;;;;4992344;28;20030;-46
2022/02/23 01:11:29;;;;;;;10.15;2.47;;;7.90;99.90;;;;;;4990787;28;20027;-49
2022/02/23 01:13:55;;;;;;;7.03;2.15;;;7.90;99.90;;;;;;4991943;28;20053;-46
2022/02/23 01:16:20;;;;;;;7.53;2.38;;;7.80;99.90;;;;;;4992032;28;20494;-48
2022/02/23 01:18:46;;;;;;;10.90;2.47;;;7.80;99.90;;;;;;4991486;28;20581;-45
2022/02/23 01:21:12;;;;;;;8.15;2.45;;;7.80;99.90;;;;;;4991868;28;20105;-49
2022/02/23 01:23:38;;;;;;;7.15;2.78;;;7.70;99.90;;;;;;4991899;28;20025;-46
2022/02/23 01:26:04;;;;;;;9.95;2.25;;;7.60;99.90;;;;;;4992252;28;20036;-49
2022/02/23 01:28:31;;;;;;;8.25;2.30;;;7.60;99.90;;;;;;4992554;28;20038;-47
2022/02/23 01:30:57;;;;;;;11.25;2.20;;;7.50;99.90;;;;;;4995879;28;20061;-49
2022/02/23 01:33:22;;;;;;;7.50;2.33;;;7.70;99.90;;;;;;4995562;28;20026;-49
2022/02/23 01:35:48;;;;;;;9.05;2.30;;;7.70;99.90;;;;;;4995758;28;20026;-47
2022/02/23 01:38:14;;;;;;;10.60;2.33;;;7.60;99.90;;;;;;4996019;28;20148;-46
2022/02/23 01:40:40;;;;;;;11.63;2.40;;;7.60;99.90;;;;;;4995647;28;20398;-45
2022/02/23 01:43:05;;;;;;;13.57;3.90;;;7.60;99.90;;;;;;4995459;28;20026;-46
2022/02/23 01:45:31;;;;;;;9.82;2.40;;;7.50;99.90;;;;;;4995694;28;20023;-50
2022/02/23 01:47:56;;;;;;;11.50;2.53;;;7.50;99.90;;;;;;4994333;28;20113;-48
2022/02/23 01:50:22;;;;;;;18.35;3.38;;;7.50;99.90;;;;;;4995508;28;20036;-45
2022/02/23 01:52:48;;;;;;;9.52;2.53;;;7.50;99.90;;;;;;4995386;28;20056;-47
2022/02/23 01:55:13;;;;;;;14.38;2.55;;;7.40;99.90;;;;;;4995595;28;20038;-46
2022/02/23 01:57:39;;;;;;;18.60;3.22;;;7.40;99.90;;;;;;4995374;28;20022;-46
2022/02/23 02:00:08;;;;;;;12.40;2.50;;;7.40;99.90;;;;;;4994183;28;20026;-48
2022/02/23 02:02:34;;;;;;;7.97;2.28;;;7.30;99.90;;;;;;4995399;28;20023;-47
2022/02/23 02:05:00;;;;;;;15.15;2.30;;;7.30;99.90;;;;;;4995098;28;20026;-46
2022/02/23 02:07:25;;;;;;;12.60;3.13;;;7.30;99.90;;;;;;4995294;28;20379;-46
2022/02/23 02:09:51;;;;;;;8.90;1.98;;;7.30;99.90;;;;;;4995155;28;20105;-48
2022/02/23 02:12:16;;;;;;;15.50;2.53;;;7.30;99.90;;;;;;4997354;28;20076;-49
2022/02/23 02:14:42;;;;;;;8.52;2.38;;;7.30;99.90;;;;;;4996744;28;20026;-45
2022/02/23 02:17:07;;;;;;;8.93;2.15;;;7.30;99.90;;;;;;4993142;28;20397;-49
2022/02/23 02:19:33;;;;;;;6.28;2.22;;;7.30;99.90;;;;;;4995127;28;20022;-48
2022/02/23 02:22:07;;;;;;;7.88;2.55;;;7.30;99.90;;;;;;4995090;28;20015;-45
2022/02/23 02:24:35;;;;;;;5.78;2.22;;;7.30;99.90;;;;;;4994643;28;20079;-45
2022/02/23 02:27:03;;;;;;;14.25;2.40;;;7.30;99.90;;;;;;4994740;28;20121;-46
2022/02/23 02:29:29;;;;;;;9.90;2.45;;;7.30;99.90;;;;;;4993628;28;20072;-48
2022/02/23 02:31:55;;;;;;;10.15;2.33;;;7.30;99.90;;;;;;4994753;28;20053;-50
2022/02/23 02:34:21;;;;;;;9.82;2.22;;;7.30;99.90;;;;;;4994505;28;20042;-46
2022/02/23 02:36:50;;;;;;;11.85;2.65;;;7.30;99.90;;;;;;4994611;28;20581;-46
2022/02/23 02:39:17;;;;;;;10.60;3.60;;;7.20;99.90;;;;;;4994645;28;20464;-47
2022/02/23 02:41:42;;;;;;;12.80;2.05;;;7.20;99.90;;;;;;4992416;28;20117;-46
2022/02/23 02:44:08;;;;;;;9.05;3.05;;;7.20;99.90;;;;;;4994322;28;20122;-48
2022/02/23 02:46:33;;;;;;;18.55;2.10;;;7.10;99.90;;;;;;4994518;28;20034;-45
2022/02/23 02:48:59;;;;;;;14.23;2.42;;;7.10;99.90;;;;;;4994521;28;20036;-48
2022/02/23 02:51:25;;;;;;;11.90;3.03;;;7.10;99.90;;;;;;4994451;28;20039;-46
2022/02/23 02:53:51;;;;;;;13.98;2.38;;;7.10;99.90;;;;;;4994149;28;20022;-51
2022/02/23 02:59:38;;;;;;;12.23;2.65;;;7.00;99.90;;;;;;4992769;28;20621;-46
2022/02/23 03:02:04;;;;;;;10.73;2.53;;;7.00;99.90;;;;;;4994196;28;20034;-47
2022/02/23 03:04:30;;;;;;;12.13;2.10;;;7.00;99.90;;;;;;4993874;28;20548;-44
2022/02/23 03:06:55;;;;;;;9.93;2.13;;;7.00;99.90;;;;;;4994147;28;20026;-49
2022/02/23 03:09:21;;;;;;;9.68;2.60;;;6.90;99.90;;;;;;4994092;28;20113;-46
2022/02/23 03:11:46;;;;;;;12.23;2.53;;;6.90;99.90;;;;;;4994101;28;20069;-45
2022/02/23 03:14:12;;;;;;;8.70;1.80;;;6.90;99.90;;;;;;4994059;28;20042;-46
2022/02/23 03:16:37;;;;;;;15.43;2.45;;;6.80;99.90;;;;;;4993543;28;20030;-47
2022/02/23 03:19:03;;;;;;;12.60;1.83;;;6.70;99.90;;;;;;4993995;28;20030;-48
2022/02/23 03:21:29;;;;;;;8.90;2.17;;;6.80;99.90;;;;;;4993879;28;20031;-49
2022/02/23 03:23:54;;;;;;;11.27;2.75;;;6.70;99.90;;;;;;4992297;28;20092;-47
2022/02/23 03:26:20;;;;;;;9.88;2.00;;;6.70;99.90;;;;;;4993823;28;20074;-47
2022/02/23 03:28:45;;;;;;;14.48;2.50;;;6.70;99.90;;;;;;4993815;28;20053;-48
2022/02/23 03:31:12;;;;;;;17.00;3.08;;;6.70;99.90;;;;;;4993593;28;20494;-45
2022/02/23 03:33:42;;;;;;;11.60;2.35;;;6.60;99.90;;;;;;4993484;28;20018;-46
2022/02/23 03:36:13;;;;;;;5.35;2.20;;;6.60;99.90;;;;;;4992176;28;20031;-48
2022/02/23 03:38:39;;;;;;;15.48;2.58;;;6.60;99.90;;;;;;4993740;28;20026;-46
2022/02/23 03:41:05;;;;;;;7.15;2.13;;;6.50;99.90;;;;;;4993529;28;20407;-49
2022/02/23 03:43:31;;;;;;;7.82;2.45;;;6.60;99.90;;;;;;4993119;28;20026;-46
2022/02/23 03:45:56;;;;;;;7.90;2.53;;;6.50;99.90;;;;;;4993367;28;20280;-45
2022/02/23 03:48:22;;;;;;;14.15;2.53;;;6.50;99.90;;;;;;4993456;28;20105;-46
2022/02/23 03:50:48;;;;;;;10.75;2.53;;;6.40;99.90;;;;;;4993295;28;20022;-46
2022/02/23 03:53:14;;;;;;;14.68;3.65;;;6.40;99.90;;;;;;4992966;28;20106;-48
2022/02/23 03:55:41;;;;;;;15.35;2.75;;;6.50;99.90;;;;;;4993231;28;20019;-46
2022/02/23 03:58:08;;;;;;;14.15;2.10;;;6.40;99.90;;;;;;4993106;28;20033;-48
2022/02/23 04:00:33;;;;;;;12.30;2.60;;;6.40;99.90;;;;;;4993296;28;20027;-46
2022/02/23 04:02:59;;;;;;;8.60;2.13;;;6.50;99.90;;;;;;4992906;28;20042;-46
2022/02/23 04:05:24;;;;;;;8.90;2.95;;;6.40;99.90;;;;;;4993247;28;20529;-46
2022/02/23 04:07:50;;;;;;;13.63;3.45;;;6.40;99.90;;;;;;4993063;28;20041;-46
2022/02/23 04:10:19;;;;;;;12.18;2.40;;;6.40;99.90;;;;;;4993154;28;20125;-51
2022/02/23 04:12:46;;;;;;;15.73;2.95;;;6.40;99.90;;;;;;4992666;28;20029;-51
2022/02/23 04:15:12;;;;;;;11.70;2.50;;;6.40;99.90;;;;;;4993097;28;20026;-48
2022/02/23 04:17:37;;;;;;;8.65;2.30;;;6.40;99.90;;;;;;4991420;28;20412;-47
2022/02/23 04:20:04;;;;;;;17.50;2.95;;;6.50;99.90;;;;;;4992756;28;20023;-48
2022/02/23 04:22:29;;;;;;;15.43;3.83;;;6.40;99.90;;;;;;4992808;28;20401;-46
2022/02/23 04:24:55;;;;;;;12.82;3.03;;;6.40;99.90;;;;;;4992597;28;20029;-49
2022/02/23 04:27:20;;;;;;;16.75;2.75;;;6.40;99.90;;;;;;4992787;28;20050;-46
2022/02/23 04:29:46;;;;;;;11.10;2.65;;;6.20;99.90;;;;;;4993168;28;20040;-45
2022/02/23 04:32:12;;;;;;;13.55;2.85;;;6.10;99.90;;;;;;4991332;28;20560;-46
2022/02/23 04:34:37;;;;;;;17.70;2.58;;;5.80;99.90;;;;;;4991104;28;20033;-48
2022/02/23 04:37:03;;;;;;;11.90;3.10;;;5.60;99.90;;;;;;4992252;28;20486;-46
2022/02/23 04:39:29;;;;;;;11.77;3.75;;;5.50;99.90;;;;;;4992467;28;20023;-46
2022/02/23 04:41:54;;;;;;;9.25;3.60;;;5.40;99.90;;;;;;4991082;28;20442;-47
2022/02/23 04:44:21;;;;;;;14.63;2.72;;;5.30;99.90;;;;;;4992118;28;20033;-50
2022/02/23 04:46:46;;;;;;;10.52;3.65;;;5.30;99.90;;;;;;4992345;28;20027;-51
2022/02/23 04:49:12;;;;;;;14.88;2.90;;;5.30;99.90;;;;;;4992370;28;20030;-47
2022/02/23 04:51:38;;;;;;;9.95;2.30;;;5.30;99.90;;;;;;4990980;28;20517;-45
2022/02/23 04:54:03;;;;;;;11.32;3.15;;;5.40;99.90;;;;;;4992039;28;20026;-47
2022/02/23 04:56:29;;;;;;;20.25;3.63;;;5.40;99.90;;;;;;4992367;28;20034;-48
2022/02/23 04:58:54;;;;;;;7.03;2.15;;;5.40;99.90;;;;;;4993074;28;20410;-49
2022/02/23 05:01:21;;;;;;;10.75;2.83;;;5.50;99.90;;;;;;4992581;28;20117;-46
2022/02/23 05:03:47;;;;;;;8.05;2.40;;;5.50;99.90;;;;;;4991487;28;20035;-45
2022/02/23 05:06:13;;;;;;;7.88;1.98;;;5.50;99.90;;;;;;4992031;28;20084;-45
2022/02/23 05:08:39;;;;;;;9.23;2.15;;;5.60;99.90;;;;;;4992095;28;20026;-47
2022/02/23 05:11:04;;;;;;;28.70;4.18;;;5.60;99.90;;;;;;4992026;28;20030;-47
2022/02/23 05:13:31;;;;;;;11.13;3.58;;;5.60;99.90;;;;;;4990443;28;20030;-49
2022/02/23 05:15:58;;;;;;;18.38;3.55;;;5.70;99.90;;;;;;4991817;28;20351;-47
2022/02/23 05:18:27;;;;;;;11.15;3.65;;;5.70;99.90;;;;;;4992240;28;20425;-48
2022/02/23 05:20:56;;;;;;;5.30;2.50;;;5.60;99.90;;;;;;4991910;28;20482;-46
2022/02/23 05:23:22;;;;;;;11.20;2.10;;;5.50;99.90;;;;;;4991577;28;20561;-48
2022/02/23 05:25:48;;;;;;;11.10;2.78;;;5.40;99.90;;;;;;4992025;28;20475;-45
2022/02/23 05:28:14;;;;;;;11.07;2.58;;;5.40;99.90;;;;;;4991861;28;20026;-47
2022/02/23 05:30:39;;;;;;;9.23;2.72;;;5.30;99.90;;;;;;4991919;28;20022;-49
2022/02/23 05:33:05;;;;;;;10.25;2.95;;;5.30;99.90;;;;;;4991481;28;20085;-47
2022/02/23 05:35:31;;;;;;;15.88;2.83;;;5.20;99.90;;;;;;4991803;28;20033;-45
2022/02/23 05:37:57;;;;;;;8.13;2.88;;;5.20;99.90;;;;;;4991731;28;20517;-47
2022/02/23 05:40:22;;;;;;;9.88;3.13;;;5.10;99.90;;;;;;4990557;28;20073;-47
2022/02/23 05:42:48;;;;;;;12.15;2.85;;;5.20;99.90;;;;;;4990413;28;20026;-45
2022/02/23 05:45:13;;;;;;;10.00;2.63;;;5.20;99.90;;;;;;4991979;28;20033;-47
2022/02/23 05:47:39;;;;;;;17.58;4.03;;;5.20;99.90;;;;;;4991536;28;20026;-45
2022/02/23 05:50:05;;;;;;;17.95;2.88;;;5.20;99.90;;;;;;4990445;28;20030;-46
2022/02/23 05:52:31;;;;;;;8.55;3.33;;;5.30;99.90;;;;;;4991586;28;20027;-46
2022/02/23 05:54:57;;;;;;;10.25;3.03;;;5.30;99.90;;;;;;4991459;28;20023;-47
2022/02/23 05:57:23;;;;;;;9.88;2.50;;;5.30;99.90;;;;;;4991516;28;20033;-47
2022/02/23 05:59:49;;;;;;;10.55;2.40;;;5.30;99.90;;;;;;4991694;28;20018;-47
2022/02/23 06:02:15;;;;;;;15.13;3.08;;;5.30;99.90;;;;;;4991563;28;20069;-45
2022/02/23 06:04:41;;;;;;;8.15;2.28;;;5.30;99.90;;;;;;4991221;28;20494;-48
2022/02/23 06:07:06;;;;;;;14.85;3.13;;;5.40;99.90;;;;;;4991542;28;20509;-47
2022/02/23 06:09:32;;;;;;;10.02;2.22;;;5.30;99.90;;;;;;4991619;28;20030;-46
2022/02/23 06:11:59;;;;;;;9.10;2.45;;;5.30;99.90;;;;;;4991642;28;20033;-48
2022/02/23 06:14:25;;;;;;;8.98;2.78;;;5.20;99.90;;;;;;4992607;28;20113;-48
2022/02/23 06:16:51;;;;;;;8.52;3.15;;;5.10;99.90;;;;;;4994001;28;20508;-47
2022/02/23 06:19:17;;;;;;;6.25;1.90;;;5.10;99.90;;;;;;4995194;28;20109;-46
2022/02/23 06:21:42;;;;;;;12.45;2.67;;;5.00;99.90;;;;;;4995029;28;20022;-46
2022/02/23 06:24:08;;;;;;;7.13;2.38;;;4.80;99.90;;;;;;4993571;28;20105;-46
2022/02/23 06:26:34;;;;;;;7.10;3.13;;;4.70;99.90;;;;;;4995260;28;20026;-49
2022/02/23 06:28:59;;;;;;;14.70;4.05;;;4.70;99.90;;;;;;4994817;28;20110;-48
2022/02/23 06:31:25;;;;;;;9.18;2.50;;;4.70;99.90;;;;;;4995047;28;20041;-46
2022/02/23 06:33:50;;;;;;;12.45;2.80;;;4.70;99.90;;;;;;4994607;28;20398;-46
2022/02/23 06:36:17;;;;;;;16.77;3.03;;;4.80;99.90;;;;;;4993377;28;20038;-48
2022/02/23 06:38:43;;;;;;;14.23;3.10;;;5.00;99.90;;;;;;4993757;28;20529;-47
2022/02/23 06:41:12;;;;;;;12.00;3.00;;;5.00;99.90;;;;;;4994882;28;20022;-49
2022/02/23 06:43:38;;;;;;;19.23;2.70;;;5.10;99.90;;;;;;4994602;28;20130;-45
2022/02/23 06:46:04;;;;;;;9.02;2.80;;;5.10;99.90;;;;;;4993429;28;20061;-47
2022/02/23 06:48:31;;;;;;;13.43;3.08;;;5.20;99.90;;;;;;4994718;28;20022;-46
2022/02/23 06:50:57;;;;;;;16.20;4.35;;;5.40;99.90;;;;;;4994394;28;20030;-49
2022/02/23 06:53:22;;;;;;;8.10;4.07;;;5.60;99.90;;;;;;4994279;28;20049;-48
2022/02/23 06:55:48;;;;;;;9.80;3.60;;;5.70;99.90;;;;;;4994534;28;20162;-46
2022/02/23 06:58:14;;;;;;;12.73;2.60;;;5.90;99.90;;;;;;4994150;28;20026;-48
2022/02/23 07:00:40;;;;;;;19.98;2.85;;;6.00;99.90;;;;;;4994703;28;20026;-47
2022/02/23 07:03:06;;;;;;;9.32;2.70;;;6.20;99.90;;;;;;4994165;28;20493;-49
2022/02/23 07:05:32;;;;;;;6.53;2.08;;;6.40;99.90;;;;;;4994428;28;20046;-48
2022/02/23 07:08:02;;;;;;;11.38;2.88;;;6.60;99.90;;;;;;4992899;28;20026;-51
2022/02/23 07:10:28;;;;;;;13.65;2.95;;;6.70;99.90;;;;;;4994263;28;20037;-47
2022/02/23 07:12:55;;;;;;;19.00;2.38;;;7.20;99.90;;;;;;4993883;28;20030;-46
2022/02/23 07:15:22;;;;;;;10.73;2.85;;;7.60;99.90;;;;;;4994096;28;20033;-46
2022/02/23 07:17:48;;;;;;;14.05;3.95;;;8.00;99.90;;;;;;4993400;28;20081;-48
2022/02/23 07:20:15;;;;;;;13.55;3.38;;;8.40;99.90;;;;;;4992963;28;20390;-48
2022/02/23 07:22:41;;;;;;;11.85;2.88;;;8.70;99.90;;;;;;4993780;28;20031;-53
2022/02/23 07:25:09;;;;;;;10.40;2.67;;;9.00;99.90;;;;;;4993902;28;20018;-46
2022/02/23 07:27:35;;;;;;;10.10;3.25;;;9.30;99.90;;;;;;4993584;28;20030;-45
2022/02/23 07:30:03;;;;;;;15.23;4.05;;;9.50;99.90;;;;;;4993868;28;20383;-45
2022/02/23 07:32:31;;;;;;;10.43;2.72;;;9.70;99.90;;;;;;4992388;28;20117;-46
2022/02/23 07:34:58;;;;;;;12.25;3.30;;;9.90;99.90;;;;;;4993599;28;20068;-46
2022/02/23 07:37:24;;;;;;;8.10;2.55;;;10.10;99.90;;;;;;4993493;28;20034;-45
2022/02/23 07:39:53;;;;;;;9.35;3.72;;;10.10;99.90;;;;;;4993744;28;20172;-46
2022/02/23 07:42:19;;;;;;;13.88;3.53;;;9.70;99.90;;;;;;4993627;28;20117;-46
2022/02/23 07:44:45;;;;;;;9.45;3.28;;;9.20;99.90;;;;;;4993474;28;20022;-50
2022/02/23 07:47:11;;;;;;;12.38;3.38;;;8.60;99.90;;;;;;4993562;28;20026;-48
2022/02/23 07:49:37;;;;;;;10.07;3.22;;;8.00;99.90;;;;;;4993555;28;20490;-46
2022/02/23 07:52:03;;;;;;;17.73;4.20;;;7.60;99.90;;;;;;4992077;28;20581;-47
2022/02/23 07:54:29;;;;;;;14.40;3.40;;;7.30;99.90;;;;;;4993298;28;20062;-47
2022/02/23 07:56:54;;;;;;;9.98;3.55;;;7.20;99.90;;;;;;4993157;28;20073;-50
2022/02/23 07:59:20;;;;;;;20.65;4.35;;;7.10;99.90;;;;;;4993308;28;20030;-48
2022/02/23 08:01:45;;;;;;;13.50;3.97;;;7.00;99.90;;;;;;4993165;28;20034;-48
2022/02/23 08:04:11;;;;;;;18.38;4.47;;;7.00;99.90;;;;;;4992948;28;20385;-47
2022/02/23 08:06:39;;;;;;;14.43;4.82;;;7.00;99.90;;;;;;4992947;28;20045;-46
2022/02/23 08:09:07;;;;;;;8.70;3.10;;;7.00;99.90;;;;;;4992951;28;20026;-45
2022/02/23 08:11:36;;;;;;;16.58;3.88;;;7.00;99.90;;;;;;4992962;28;20026;-45
2022/02/23 08:14:03;;;;;;;13.50;3.85;;;6.90;99.90;;;;;;4992740;28;20022;-48
2022/02/23 08:19:31;;;;;;;13.00;3.88;;;7.00;99.90;;;;;;4993146;28;20084;-48
2022/02/23 08:21:59;;;;;;;22.80;3.75;;;7.00;99.90;;;;;;4992741;28;20022;-46
2022/02/23 08:24:29;;;;;;;15.48;4.15;;;7.10;99.90;;;;;;4992455;28;20437;-48
2022/02/23 08:26:57;;;;;;;17.88;5.15;;;7.10;99.90;;;;;;4993161;28;20049;-46
2022/02/23 08:29:24;;;;;;;12.45;4.07;;;7.20;99.90;;;;;;4992789;28;20058;-48
2022/02/23 08:31:49;;;;;;;11.32;3.75;;;7.20;99.90;;;;;;4992627;28;20030;-48
2022/02/23 08:34:16;;;;;;;12.20;3.65;;;7.20;99.90;;;;;;4992728;28;20033;-46
2022/02/23 08:36:41;;;;;;;8.52;3.28;;;7.20;99.90;;;;;;4991160;28;20031;-45
2022/02/23 08:39:07;;;;;;;6.75;3.20;;;7.20;99.90;;;;;;4990670;28;20048;-47
2022/02/23 08:41:33;;;;;;;11.60;4.20;;;7.20;99.90;;;;;;4992435;28;20530;-48
2022/02/23 08:44:00;;;;;;;14.93;3.65;;;7.20;99.90;;;;;;4992197;28;20045;-51
2022/02/23 08:46:26;;;;;;;22.42;5.50;;;7.30;99.90;;;;;;5006570;28;20072;-47
2022/02/23 08:48:52;;;;;;;12.23;3.70;;;7.50;99.90;;;;;;4993491;28;20054;-48
2022/02/23 08:51:18;;;;;;;21.45;4.55;;;7.60;99.90;;;;;;4998016;28;20092;-49
2022/02/23 08:53:43;;;;;;;16.30;4.20;;;7.60;99.90;;;;;;5011364;28;20029;-50
2022/02/23 08:56:09;;;;;;;8.77;3.85;;;7.60;99.90;;;;;;5007882;28;20038;-50
2022/02/23 08:58:35;;;;;;;7.82;3.58;;;7.70;99.90;;;;;;5006526;28;20046;-48
2022/02/23 09:01:01;;;;;;;8.70;3.45;;;7.70;99.90;;;;;;5010417;28;20055;-46
2022/02/23 09:03:26;;;;;;;15.75;3.17;;;7.80;99.90;;;;;;5009364;28;20030;-47
2022/02/23 09:05:52;;;;;;;17.23;3.92;;;7.80;99.90;;;;;;5011556;28;20483;-47
2022/02/23 09:08:18;;;;;;;10.45;3.95;;;7.90;99.90;;;;;;5010873;28;20030;-49
2022/02/23 09:10:43;;;;;;;13.27;4.63;;;8.10;99.90;;;;;;5009526;28;20044;-43
2022/02/23 09:13:09;;;;;;;10.02;3.15;;;8.10;99.90;;;;;;5011047;28;20490;-50
2022/02/23 09:15:35;;;;;;;19.02;5.47;;;8.10;99.90;;;;;;5011129;28;20080;-46
2022/02/23 09:18:02;;;;;;;11.15;3.97;;;8.30;99.90;;;;;;5011565;28;20037;-49
2022/02/23 09:20:28;;;;;;;9.18;3.00;;;8.20;99.90;;;;;;5011604;28;20030;-48
2022/02/23 09:22:54;;;;;;;11.55;3.10;;;8.20;99.90;;;;;;5011268;28;20049;-49
2022/02/23 09:25:21;;;;;;;10.38;3.22;;;8.20;99.90;;;;;;5011615;28;20029;-47
2022/02/23 09:27:46;;;;;;;9.50;3.30;;;8.30;99.90;;;;;;5010888;28;20036;-47
2022/02/23 09:30:12;;;;;;;8.88;3.15;;;8.60;99.90;;;;;;5011406;28;20030;-46
2022/02/23 09:32:39;;;;;;;9.95;3.05;;;9.70;99.90;;;;;;5011449;28;20022;-46
2022/02/23 09:35:05;;;;;;;8.98;2.75;;;11.10;99.90;;;;;;5011323;28;20037;-48
2022/02/23 09:37:31;;;;;;;7.18;3.30;;;12.50;99.90;;;;;;5011240;28;20485;-46
2022/02/23 09:39:57;;;;;;;9.43;2.80;;;13.60;99.90;;;;;;5011507;28;20029;-46
2022/02/23 09:42:28;;;;;;;10.85;2.72;;;14.80;98.20;;;;;;5011438;28;20018;-49
2022/02/23 09:45:00;;;;;;;8.60;2.90;;;15.70;96.60;;;;;;5011060;28;20013;-46
2022/02/23 09:47:30;;;;;;;9.40;3.05;;;16.50;94.80;;;;;;5011704;28;20456;-46
2022/02/23 09:49:56;;;;;;;14.90;3.05;;;17.20;93.20;;;;;;5013015;28;20026;-46
2022/02/23 09:52:24;;;;;;;7.32;2.10;;;17.80;92.00;;;;;;5015356;28;20018;-48
2022/02/23 09:54:50;;;;;;;6.68;3.03;;;18.20;90.90;;;;;;5014996;28;20022;-48
2022/02/23 09:57:17;;;;;;;13.07;3.05;;;18.30;89.80;;;;;;5015349;28;20046;-48
2022/02/23 09:59:43;;;;;;;13.07;3.13;;;18.80;84.60;;;;;;5015211;28;20481;-45
2022/02/23 10:02:12;;;;;;;14.30;3.83;;;19.50;81.50;;;;;;5014930;28;20084;-50
2022/02/23 10:04:38;;;;;;;10.65;2.55;;;19.60;77.50;;;;;;5014817;28;20097;-49
2022/02/23 10:07:05;;;;;;;11.23;2.88;;;19.40;78.20;;;;;;5014976;28;20105;-50
2022/02/23 10:09:40;;;;;;;12.23;3.63;;;19.20;78.60;;;;;;5015174;28;20030;-46
2022/02/23 10:12:06;;;;;;;11.38;3.38;;;18.60;73.90;;;;;;5015061;28;20061;-47
2022/02/23 10:14:32;;;;;;;12.80;3.70;;;18.10;76.30;;;;;;5014309;28;20061;-49
2022/02/23 10:16:58;;;;;;;12.88;3.13;;;17.40;80.90;;;;;;5014667;28;20065;-46
2022/02/23 10:19:24;;;;;;;14.43;4.10;;;16.80;82.80;;;;;;5014747;28;20018;-46
2022/02/23 10:22:00;;;;;;;17.85;3.47;;;16.10;86.00;;;;;;5014591;28;20041;-46
2022/02/23 10:24:31;;;;;;;10.02;2.83;;;16.00;87.50;;;;;;5014396;28;20034;-48
2022/02/23 10:27:09;;;;;;;9.00;3.17;;;16.10;88.60;;;;;;5014313;28;20026;-47
2022/02/23 10:29:46;;;;;;;14.10;2.63;;;16.00;88.10;;;;;;5013407;28;20021;-48
2022/02/23 10:32:13;;;;;;;10.13;2.72;;;15.90;88.00;;;;;;5014328;28;20030;-46
2022/02/23 10:34:44;;;;;;;11.18;3.33;;;15.90;87.80;;;;;;5013494;28;20026;-45
2022/02/23 10:37:11;;;;;;;14.88;3.15;;;16.00;86.80;;;;;;5010794;28;20088;-50
2022/02/23 10:39:38;;;;;;;13.27;2.92;;;15.90;85.30;;;;;;5012170;28;20084;-45
2022/02/23 10:42:19;;;;;;;16.35;2.97;;;15.30;88.50;;;;;;5013378;28;20029;-46
2022/02/23 10:44:47;;;;;;;11.77;3.65;;;15.00;87.30;;;;;;5012933;28;20058;-47
2022/02/23 10:47:25;;;;;;;16.77;2.72;;;14.50;90.30;;;;;;4994414;28;20553;-48
2022/02/23 10:50:05;;;;;;;11.75;3.28;;;14.60;91.10;;;;;;4994157;28;20538;-47
2022/02/23 10:52:33;;;;;;;13.55;3.53;;;14.60;90.40;;;;;;4994552;28;20030;-49
2022/02/23 10:55:24;;;;;;;13.40;2.95;;;14.70;90.20;;;;;;4994221;28;20402;-46
2022/02/23 10:57:51;;;;;;;18.13;4.20;;;14.90;90.00;;;;;;4993885;28;20033;-47
2022/02/23 11:00:19;;;;;;;8.75;2.88;;;14.70;90.10;;;;;;4994525;28;20023;-48
2022/02/23 11:02:46;;;;;;;14.88;3.20;;;14.30;90.60;;;;;;4993505;28;20027;-48
2022/02/23 11:05:13;;;;;;;9.77;3.45;;;13.70;91.20;;;;;;4994382;28;20033;-46
2022/02/23 11:07:42;;;;;;;10.32;3.05;;;13.30;91.40;;;;;;5009605;28;20068;-48
2022/02/23 11:10:13;;;;;;;19.83;3.63;;;13.20;91.30;;;;;;4997551;28;20030;-45
2022/02/23 11:12:52;;;;;;;16.52;3.03;;;13.10;90.60;;;;;;5012349;28;20026;-46
2022/02/23 11:15:23;;;;;;;10.73;2.40;;;13.00;91.20;;;;;;5013990;28;20026;-48
2022/02/23 11:17:51;;;;;;;13.15;2.50;;;13.00;91.00;;;;;;5013090;28;20125;-48
2022/02/23 11:20:19;;;;;;;11.88;2.55;;;12.80;91.40;;;;;;5012450;28;20394;-47
2022/02/23 11:22:50;;;;;;;10.45;2.85;;;12.60;92.00;;;;;;5013460;28;20494;-46
2022/02/23 11:25:17;;;;;;;17.05;3.35;;;12.50;93.20;;;;;;5013549;28;20372;-48
2022/02/23 11:27:49;;;;;;;15.70;3.08;;;12.30;92.50;;;;;;5030960;28;20034;-48
2022/02/23 11:30:16;;;;;;;19.73;3.17;;;12.20;92.60;;;;;;5031926;28;20461;-50
2022/02/23 11:32:43;;;;;;;9.75;2.60;;;12.10;92.70;;;;;;5023107;28;20120;-47
2022/02/23 11:35:13;;;;;;;15.13;2.70;;;12.00;92.80;;;;;;5012121;28;20109;-46
2022/02/23 11:37:41;;;;;;;12.15;2.50;;;12.10;93.90;;;;;;5013558;28;20030;-46
2022/02/23 11:40:09;;;;;;;15.27;4.47;;;12.20;93.30;;;;;;5014553;28;20529;-49
2022/02/23 11:42:35;;;;;;;46.00;20.55;;;12.20;92.60;;;;;;5013102;28;20026;-52
2022/02/23 11:45:13;;;;;;;12.88;2.97;;;12.00;92.90;;;;;;5015068;28;20021;-47
2022/02/23 11:47:46;;;;;;;10.05;2.67;;;12.00;93.90;;;;;;4993501;28;20039;-44
2022/02/23 11:50:21;;;;;;;14.88;3.00;;;12.00;94.60;;;;;;4993331;28;20098;-47
2022/02/23 11:52:50;;;;;;;14.55;3.15;;;12.10;94.10;;;;;;5000897;28;20096;-50
2022/02/23 11:55:22;;;;;;;11.30;2.60;;;12.00;93.80;;;;;;5011506;28;20041;-49
2022/02/23 11:57:54;;;;;;;10.73;2.63;;;11.90;94.30;;;;;;5022071;28;20025;-48
2022/02/23 12:00:29;;;;;;;11.10;2.30;;;11.70;95.00;;;;;;5012577;28;20046;-47
2022/02/23 12:03:09;;;;;;;13.80;2.25;;;11.70;94.70;;;;;;5013038;28;20030;-46
2022/02/23 12:05:46;;;;;;;13.00;3.10;;;11.70;93.90;;;;;;5012647;28;20022;-46
2022/02/23 12:08:42;;;;;;;12.98;2.42;;;11.70;94.20;;;;;;5009886;28;20283;-48
2022/02/23 12:11:17;;;;;;;10.00;2.97;;;11.70;93.70;;;;;;5012118;28;20025;-50
2022/02/23 12:16:41;;;;;;;8.02;2.08;;;11.80;94.70;;;;;;4972380;28;20302;-41
2022/02/23 12:19:09;;;;;;;9.38;1.98;;;11.70;93.20;;;;;;4974375;28;20033;-40
2022/02/23 12:21:52;;;;;;;6.80;2.83;;;11.70;92.70;;;;;;4973620;28;20539;-46
2022/02/23 12:24:20;;;;;;;9.98;2.40;;;11.70;93.00;;;;;;4974261;28;20037;-42
2022/02/23 12:26:48;;;;;;;9.63;2.22;;;11.70;93.10;;;;;;4975156;28;20026;-44
2022/02/23 12:29:16;;;;;;;12.52;2.95;;;11.60;93.60;;;;;;4974895;28;20475;-42
2022/02/23 12:31:45;;;;;;;7.57;2.20;;;11.50;93.40;;;;;;4973577;28;20084;-48
2022/02/23 12:34:18;;;;;;;12.30;2.67;;;11.60;93.60;;;;;;4972964;28;20450;-48
2022/02/23 12:36:50;;;;;;;6.65;1.95;;;11.70;92.30;;;;;;4973470;28;20050;-49
2022/02/23 12:39:22;;;;;;;9.45;2.53;;;11.70;92.40;;;;;;4973183;28;20026;-49
2022/02/23 12:41:53;;;;;;;18.02;2.45;;;11.70;92.50;;;;;;4973083;28;20030;-42
2022/02/23 12:44:20;;;;;;;11.45;2.65;;;11.70;92.80;;;;;;4972916;28;20023;-46
2022/02/23 12:46:49;;;;;;;11.10;2.17;;;11.70;92.60;;;;;;4973186;28;20031;-47
2022/02/23 12:49:15;;;;;;;6.75;1.98;;;11.70;92.30;;;;;;4972954;28;20077;-46
2022/02/23 12:51:43;;;;;;;8.30;2.30;;;11.70;92.80;;;;;;4971774;28;20046;-41
2022/02/23 12:54:13;;;;;;;11.63;2.40;;;11.70;93.30;;;;;;4982937;28;20022;-57
2022/02/23 12:56:44;;;;;;;11.80;2.72;;;11.60;93.80;;;;;;4992512;28;20094;-40